Time;durP1;ratioP1;P1;durP2;ratioP2;P2;SDS_P1;SDS_P2;PMS_P1;PMS_P2;Temp;Humidity;BMP_temperature;BMP_pressure;BME280_temperature;BME280_humidity;BME280_pressure;Samples;Min_cycle;Max_cycle;Signal;HPM_P1;HPM_P2
2023/12/05 00:00:32;;;;;;;7.88;5.65;;;3.40;99.90;;;;;;4985833;28;20077;-79
2023/12/05 00:02:57;;;;;;;7.65;5.00;;;3.50;99.90;;;;;;4980295;28;20038;-79
2023/12/05 00:05:23;;;;;;;5.40;3.20;;;3.50;99.90;;;;;;5010084;28;20033;-77
2023/12/05 00:07:49;;;;;;;5.28;3.42;;;3.50;99.90;;;;;;4968052;28;20034;-77
2023/12/05 00:10:15;;;;;;;6.68;5.13;;;3.50;99.90;;;;;;4998990;28;20685;-78
2023/12/05 00:12:40;;;;;;;7.60;5.50;;;3.50;99.90;;;;;;4978095;28;20042;-78
2023/12/05 00:15:06;;;;;;;5.35;3.55;;;3.50;99.90;;;;;;4993250;28;20042;-79
2023/12/05 00:17:32;;;;;;;8.25;5.15;;;3.60;99.90;;;;;;4967282;28;20124;-77
2023/12/05 00:19:57;;;;;;;6.05;4.88;;;3.50;99.90;;;;;;4995545;28;20625;-77
2023/12/05 00:22:25;;;;;;;7.78;5.88;;;3.50;99.90;;;;;;4996528;28;20037;-78
2023/12/05 00:24:51;;;;;;;7.40;5.15;;;3.60;99.90;;;;;;4983914;28;20042;-77
2023/12/05 00:27:16;;;;;;;8.15;4.85;;;3.60;99.90;;;;;;5013218;28;20041;-77
2023/12/05 00:29:42;;;;;;;8.15;5.43;;;3.60;99.90;;;;;;4987227;28;20042;-77
2023/12/05 00:32:07;;;;;;;5.50;3.92;;;3.50;99.90;;;;;;4998306;28;20038;-76
2023/12/05 00:34:34;;;;;;;8.95;4.93;;;3.60;99.90;;;;;;4999751;28;20095;-78
2023/12/05 00:37:00;;;;;;;7.88;4.80;;;3.60;99.90;;;;;;4999481;28;20081;-78
2023/12/05 00:39:25;;;;;;;4.63;3.65;;;3.60;99.90;;;;;;4994555;28;20493;-77
2023/12/05 00:41:51;;;;;;;2.42;1.83;;;3.60;99.90;;;;;;4985079;28;20072;-77
2023/12/05 00:44:16;;;;;;;7.55;5.32;;;3.60;99.90;;;;;;4984594;28;20485;-78
2023/12/05 00:46:42;;;;;;;7.35;5.80;;;3.70;99.90;;;;;;4998761;28;20042;-79
2023/12/05 00:49:07;;;;;;;6.15;5.05;;;3.60;99.90;;;;;;4969243;28;20030;-78
2023/12/05 00:51:33;;;;;;;5.45;3.83;;;3.70;99.90;;;;;;4997429;28;20489;-77
2023/12/05 00:53:58;;;;;;;5.45;4.47;;;3.60;99.90;;;;;;4996042;28;20031;-77
2023/12/05 00:56:24;;;;;;;6.72;4.38;;;3.70;99.90;;;;;;4996779;28;20034;-79
2023/12/05 00:58:50;;;;;;;5.20;3.33;;;3.70;99.90;;;;;;4972900;28;20486;-77
2023/12/05 01:01:18;;;;;;;5.65;4.32;;;3.70;99.90;;;;;;5001941;28;20050;-76
2023/12/05 01:03:43;;;;;;;7.50;5.53;;;3.70;99.90;;;;;;4985531;28;20095;-77
2023/12/05 01:06:09;;;;;;;6.38;5.18;;;3.70;99.90;;;;;;4997981;28;20014;-78
2023/12/05 01:08:35;;;;;;;7.05;4.80;;;3.70;99.90;;;;;;4984616;28;20096;-77
2023/12/05 01:11:00;;;;;;;8.07;5.85;;;3.70;99.90;;;;;;4999759;28;20042;-77
2023/12/05 01:13:26;;;;;;;7.53;4.38;;;3.70;99.90;;;;;;4968330;28;20033;-79
2023/12/05 01:15:51;;;;;;;5.15;2.42;;;3.70;99.90;;;;;;4981107;28;20038;-78
2023/12/05 01:18:17;;;;;;;7.57;5.68;;;3.70;99.90;;;;;;4960971;28;20116;-77
2023/12/05 01:20:43;;;;;;;6.50;4.60;;;3.70;99.90;;;;;;4955595;28;20093;-78
2023/12/05 01:23:08;;;;;;;9.90;6.57;;;3.70;99.90;;;;;;4985362;28;20037;-77
2023/12/05 01:25:34;;;;;;;7.10;5.30;;;3.70;99.90;;;;;;4985658;28;20033;-77
2023/12/05 01:27:59;;;;;;;7.28;5.05;;;3.70;99.90;;;;;;4981061;28;20100;-77
2023/12/05 01:30:25;;;;;;;8.30;5.93;;;3.70;99.90;;;;;;4986814;28;20847;-77
2023/12/05 01:32:50;;;;;;;5.57;3.63;;;3.80;99.90;;;;;;4985139;28;20414;-77
2023/12/05 01:35:16;;;;;;;6.97;4.63;;;3.80;99.90;;;;;;4981416;28;20513;-77
2023/12/05 01:37:42;;;;;;;6.07;4.32;;;3.80;99.90;;;;;;4997922;28;20078;-78
2023/12/05 01:40:09;;;;;;;8.65;5.63;;;3.80;99.90;;;;;;4994430;28;20053;-77
2023/12/05 01:42:38;;;;;;;8.15;5.03;;;3.80;99.90;;;;;;4996635;28;20524;-77
2023/12/05 01:45:07;;;;;;;9.00;5.78;;;3.90;99.90;;;;;;4998154;28;20034;-76
2023/12/05 01:47:36;;;;;;;7.10;5.78;;;3.80;99.90;;;;;;4998899;28;20045;-77
2023/12/05 01:50:03;;;;;;;4.43;3.13;;;3.80;99.90;;;;;;4999013;28;20606;-77
2023/12/05 01:52:29;;;;;;;6.20;4.95;;;3.80;99.90;;;;;;4979907;28;20371;-77
2023/12/05 01:54:54;;;;;;;8.30;6.53;;;3.80;99.90;;;;;;4982623;28;20101;-78
2023/12/05 01:57:20;;;;;;;7.00;4.63;;;3.80;99.90;;;;;;4978059;28;20027;-78
2023/12/05 01:59:46;;;;;;;8.80;5.55;;;3.80;99.90;;;;;;4995589;28;20058;-76
2023/12/05 02:02:12;;;;;;;6.78;4.40;;;3.80;99.90;;;;;;4978661;28;20394;-77
2023/12/05 02:04:38;;;;;;;7.10;5.40;;;3.90;99.90;;;;;;4966093;28;20053;-77
2023/12/05 02:07:04;;;;;;;8.02;5.75;;;3.90;99.90;;;;;;4985238;28;20034;-77
2023/12/05 02:09:30;;;;;;;7.63;5.18;;;3.80;99.90;;;;;;4986557;28;20457;-78
2023/12/05 02:11:56;;;;;;;5.80;4.47;;;3.90;99.90;;;;;;4979381;28;20132;-77
2023/12/05 02:14:22;;;;;;;6.97;5.63;;;3.90;99.90;;;;;;4979687;28;20497;-78
2023/12/05 02:17:15;;;;;;;7.22;5.47;;;3.90;99.90;;;;;;4993494;28;20468;-77
2023/12/05 02:19:58;;;;;;;8.00;4.97;;;3.90;99.90;;;;;;4980844;28;20030;-75
2023/12/05 02:22:37;;;;;;;8.60;4.93;;;4.10;99.90;;;;;;5000105;28;20027;-77
2023/12/05 02:25:31;;;;;;;7.70;5.38;;;3.90;99.90;;;;;;4991563;28;20047;-77
2023/12/05 02:27:56;;;;;;;9.48;5.72;;;4.00;99.90;;;;;;5001199;28;20050;-77
2023/12/05 02:30:25;;;;;;;5.90;4.80;;;4.00;99.90;;;;;;4997694;28;20076;-77
2023/12/05 02:32:50;;;;;;;6.32;4.32;;;4.00;99.90;;;;;;4980503;28;20518;-77
2023/12/05 02:35:16;;;;;;;6.68;5.35;;;3.90;99.90;;;;;;5002515;28;20042;-78
2023/12/05 02:37:49;;;;;;;4.75;2.22;;;4.00;99.90;;;;;;4979700;28;20030;-78
2023/12/05 02:40:21;;;;;;;8.82;5.22;;;4.00;99.90;;;;;;4984125;28;20312;-78
2023/12/05 02:42:49;;;;;;;8.23;5.75;;;4.00;99.90;;;;;;4981785;28;20667;-77
2023/12/05 02:45:25;;;;;;;6.53;4.22;;;4.00;99.90;;;;;;4984211;28;20035;-77
2023/12/05 02:47:50;;;;;;;8.30;5.50;;;4.00;99.90;;;;;;4992676;28;20486;-78
2023/12/05 02:50:17;;;;;;;8.27;5.50;;;4.00;99.90;;;;;;4980413;28;20041;-79
2023/12/05 02:52:43;;;;;;;7.85;4.90;;;4.00;99.90;;;;;;4991142;28;20129;-77
2023/12/05 02:55:08;;;;;;;8.15;6.22;;;4.00;99.90;;;;;;4966731;28;20581;-78
2023/12/05 02:57:34;;;;;;;6.25;4.93;;;4.10;99.90;;;;;;4989225;28;20112;-77
2023/12/05 02:59:59;;;;;;;6.65;5.13;;;4.00;99.90;;;;;;4967606;28;20138;-77
2023/12/05 03:02:25;;;;;;;7.07;4.30;;;4.10;99.90;;;;;;4984209;28;20073;-77
2023/12/05 03:04:50;;;;;;;5.70;4.00;;;4.10;99.90;;;;;;4967831;28;20038;-76
2023/12/05 03:07:16;;;;;;;9.18;4.97;;;4.10;99.90;;;;;;4970866;28;20041;-78
2023/12/05 03:09:41;;;;;;;5.93;4.53;;;4.10;99.90;;;;;;4980415;28;20042;-77
2023/12/05 03:12:07;;;;;;;5.78;4.20;;;4.10;99.90;;;;;;4984851;28;20471;-77
2023/12/05 03:14:33;;;;;;;7.95;5.20;;;4.10;99.90;;;;;;4994203;28;20034;-78
2023/12/05 03:16:58;;;;;;;5.50;4.38;;;4.10;99.90;;;;;;4996658;28;20660;-78
2023/12/05 03:19:24;;;;;;;6.65;4.80;;;4.10;99.90;;;;;;4988137;28;20510;-77
2023/12/05 03:21:50;;;;;;;6.25;4.10;;;4.10;99.90;;;;;;4985182;28;20457;-77
2023/12/05 03:24:15;;;;;;;6.25;4.32;;;4.10;99.90;;;;;;4995943;28;20608;-77
2023/12/05 03:26:41;;;;;;;5.70;4.20;;;4.10;99.90;;;;;;4968264;28;20122;-78
2023/12/05 03:29:06;;;;;;;6.22;4.72;;;4.10;99.90;;;;;;4983573;28;20050;-77
2023/12/05 03:31:36;;;;;;;4.47;3.45;;;4.10;99.90;;;;;;4962982;28;20034;-78
2023/12/05 03:34:02;;;;;;;5.43;4.05;;;4.10;99.90;;;;;;4989456;28;20490;-78
2023/12/05 03:36:27;;;;;;;6.22;4.80;;;4.10;99.90;;;;;;4982634;28;20167;-78
2023/12/05 03:38:53;;;;;;;4.75;2.95;;;4.20;99.90;;;;;;4997940;28;20064;-76
2023/12/05 03:41:18;;;;;;;5.75;4.10;;;4.20;99.90;;;;;;4990149;28;20109;-78
2023/12/05 03:43:44;;;;;;;9.70;4.28;;;4.20;99.90;;;;;;4985270;28;20034;-79
2023/12/05 03:46:09;;;;;;;3.80;3.28;;;4.20;99.90;;;;;;4982442;28;20042;-78
2023/12/05 03:48:36;;;;;;;4.13;2.95;;;4.20;99.90;;;;;;5004374;28;20034;-78
2023/12/05 03:51:02;;;;;;;4.30;2.88;;;4.20;99.90;;;;;;5023456;28;20402;-78
2023/12/05 03:53:28;;;;;;;3.72;2.95;;;4.20;99.90;;;;;;4976230;28;20037;-78
2023/12/05 03:55:53;;;;;;;7.45;5.13;;;4.20;99.90;;;;;;4979140;28;20034;-78
2023/12/05 03:58:19;;;;;;;4.25;2.88;;;4.20;99.90;;;;;;5002274;28;20375;-78
2023/12/05 04:00:44;;;;;;;6.75;4.85;;;4.20;99.90;;;;;;4998766;28;20061;-78
2023/12/05 04:03:10;;;;;;;4.55;3.60;;;4.20;99.90;;;;;;5002526;28;20038;-78
2023/12/05 04:05:36;;;;;;;5.93;4.55;;;4.20;99.90;;;;;;5002965;28;20046;-78
2023/12/05 04:08:01;;;;;;;7.32;4.82;;;4.20;99.90;;;;;;4973803;28;20034;-78
2023/12/05 04:10:27;;;;;;;5.30;3.40;;;4.30;99.90;;;;;;4986750;28;20041;-79
2023/12/05 04:12:52;;;;;;;7.30;4.70;;;4.30;99.90;;;;;;5001901;28;20042;-78
2023/12/05 04:15:18;;;;;;;6.30;4.38;;;4.30;99.90;;;;;;5010862;28;20038;-79
2023/12/05 04:17:43;;;;;;;7.95;4.70;;;4.30;99.90;;;;;;4984134;28;20484;-79
2023/12/05 04:20:10;;;;;;;8.35;5.75;;;4.30;99.90;;;;;;4967272;28;20081;-79
2023/12/05 04:22:36;;;;;;;7.68;5.00;;;4.30;99.90;;;;;;4983952;28;20027;-79
2023/12/05 04:25:03;;;;;;;6.40;4.75;;;4.30;99.90;;;;;;4980779;28;20041;-79
2023/12/05 04:27:29;;;;;;;6.18;4.53;;;4.40;99.90;;;;;;4999360;28;20034;-79
2023/12/05 04:29:54;;;;;;;7.13;5.38;;;4.30;99.90;;;;;;5002090;28;20033;-78
2023/12/05 04:32:20;;;;;;;4.65;3.92;;;4.40;99.90;;;;;;5001895;28;20042;-78
2023/12/05 04:34:46;;;;;;;5.68;4.80;;;4.40;99.90;;;;;;4997940;28;21103;-78
2023/12/05 04:37:12;;;;;;;7.45;5.25;;;4.40;99.90;;;;;;4997807;28;20042;-78
2023/12/05 04:39:38;;;;;;;5.18;4.40;;;4.40;99.90;;;;;;4994134;28;20447;-78
2023/12/05 04:42:04;;;;;;;5.43;4.25;;;4.40;99.90;;;;;;5001740;28;20079;-78
2023/12/05 04:44:29;;;;;;;6.38;4.18;;;4.40;99.90;;;;;;4998400;28;20065;-78
2023/12/05 04:46:57;;;;;;;6.18;4.60;;;4.40;99.90;;;;;;4989118;28;20065;-78
2023/12/05 04:49:22;;;;;;;6.45;4.70;;;4.40;99.90;;;;;;4997417;28;20053;-78
2023/12/05 04:51:48;;;;;;;5.85;4.20;;;4.40;99.90;;;;;;4982587;28;20084;-78
2023/12/05 04:54:13;;;;;;;6.78;5.20;;;4.40;99.90;;;;;;4996451;28;20026;-78
2023/12/05 04:56:39;;;;;;;6.57;4.65;;;4.50;99.90;;;;;;5000141;28;20098;-78
2023/12/05 04:59:04;;;;;;;4.72;4.15;;;4.40;99.90;;;;;;4999029;28;20124;-78
2023/12/05 05:01:30;;;;;;;6.90;5.40;;;4.50;99.90;;;;;;4998843;28;20423;-78
2023/12/05 05:03:56;;;;;;;4.60;3.13;;;4.50;99.90;;;;;;4985767;28;20512;-78
2023/12/05 05:06:21;;;;;;;5.80;4.53;;;4.50;99.90;;;;;;4999402;28;20109;-78
2023/12/05 05:08:47;;;;;;;3.55;2.38;;;4.50;99.90;;;;;;4998293;28;20034;-78
2023/12/05 05:11:13;;;;;;;4.85;4.00;;;4.60;99.90;;;;;;4981420;28;20038;-78
2023/12/05 05:13:39;;;;;;;6.05;4.35;;;4.50;99.90;;;;;;4981476;28;20054;-78
2023/12/05 05:16:06;;;;;;;7.47;4.18;;;4.60;99.90;;;;;;4986482;28;20552;-78
2023/12/05 05:18:32;;;;;;;4.60;3.70;;;4.60;99.90;;;;;;5016391;28;20034;-78
2023/12/05 05:20:58;;;;;;;5.57;4.18;;;4.60;99.90;;;;;;5017678;28;20381;-78
2023/12/05 05:23:23;;;;;;;5.68;3.40;;;4.60;99.90;;;;;;4969977;28;20467;-78
2023/12/05 05:25:49;;;;;;;4.25;3.60;;;4.60;99.90;;;;;;4977593;28;20494;-78
2023/12/05 05:28:14;;;;;;;6.03;4.13;;;4.60;99.90;;;;;;4979036;28;20486;-78
2023/12/05 05:30:40;;;;;;;4.82;3.75;;;4.60;99.90;;;;;;4964289;28;20034;-78
2023/12/05 05:33:05;;;;;;;6.60;4.07;;;4.70;99.90;;;;;;4990936;28;20065;-77
2023/12/05 05:35:31;;;;;;;3.63;2.85;;;4.70;99.90;;;;;;4979769;28;20037;-78
2023/12/05 05:37:56;;;;;;;2.15;1.98;;;4.70;99.90;;;;;;5000485;28;20038;-78
2023/12/05 05:40:22;;;;;;;4.65;3.58;;;4.70;99.90;;;;;;4998377;28;20045;-78
2023/12/05 05:42:47;;;;;;;3.72;2.85;;;4.70;99.90;;;;;;4996536;28;20453;-78
2023/12/05 05:45:13;;;;;;;4.53;3.60;;;4.80;99.90;;;;;;4992345;28;20033;-78
2023/12/05 05:47:38;;;;;;;3.65;2.50;;;4.80;99.90;;;;;;5002410;28;20035;-78
2023/12/05 05:50:05;;;;;;;4.55;3.40;;;4.80;99.90;;;;;;5001794;28;20609;-77
2023/12/05 05:52:31;;;;;;;8.90;5.03;;;4.80;99.90;;;;;;4999729;28;20038;-76
2023/12/05 05:54:57;;;;;;;5.93;3.13;;;4.80;99.90;;;;;;4968871;28;20081;-75
2023/12/05 05:57:22;;;;;;;3.90;3.05;;;4.90;99.90;;;;;;5000020;28;20717;-77
2023/12/05 05:59:48;;;;;;;5.28;4.00;;;4.90;99.90;;;;;;5000007;28;20092;-76
2023/12/05 06:02:14;;;;;;;4.97;3.53;;;4.90;99.90;;;;;;4996835;28;20394;-76
2023/12/05 06:04:43;;;;;;;5.13;3.25;;;4.90;99.90;;;;;;5014784;28;20152;-76
2023/12/05 06:07:08;;;;;;;3.58;2.95;;;4.90;99.90;;;;;;4977859;28;20034;-77
2023/12/05 06:09:34;;;;;;;4.40;3.00;;;5.00;99.90;;;;;;4986104;28;20378;-76
2023/12/05 06:12:00;;;;;;;4.05;3.25;;;4.90;99.90;;;;;;4953047;28;20038;-77
2023/12/05 06:14:25;;;;;;;3.67;3.05;;;5.00;99.90;;;;;;4987442;28;20050;-76
2023/12/05 06:16:51;;;;;;;5.20;3.03;;;5.00;99.90;;;;;;4984430;28;20112;-76
2023/12/05 06:19:17;;;;;;;5.70;3.55;;;5.00;99.90;;;;;;5001053;28;20089;-77
2023/12/05 06:21:42;;;;;;;4.03;2.97;;;5.00;99.90;;;;;;4979483;28;20085;-76
2023/12/05 06:24:08;;;;;;;3.72;3.08;;;5.10;99.90;;;;;;4980808;28;20033;-75
2023/12/05 06:26:34;;;;;;;4.70;3.15;;;5.10;99.90;;;;;;4975012;28;20058;-76
2023/12/05 06:29:09;;;;;;;4.32;2.70;;;5.10;99.90;;;;;;4999938;28;20037;-75
2023/12/05 06:31:34;;;;;;;4.40;2.92;;;5.10;99.90;;;;;;4976463;28;20050;-74
2023/12/05 06:34:00;;;;;;;4.40;3.25;;;5.10;99.90;;;;;;4990698;28;20121;-75
2023/12/05 06:36:26;;;;;;;5.60;3.50;;;5.10;99.90;;;;;;4994407;28;20030;-76
2023/12/05 06:38:52;;;;;;;4.95;2.55;;;5.10;99.90;;;;;;5002520;28;20030;-78
2023/12/05 06:41:17;;;;;;;5.60;2.72;;;5.10;99.90;;;;;;4997313;28;20046;-76
2023/12/05 06:43:43;;;;;;;5.38;3.58;;;5.10;99.90;;;;;;4999385;28;20082;-79
2023/12/05 06:46:08;;;;;;;2.88;2.53;;;5.10;99.90;;;;;;4986426;28;20084;-77
2023/12/05 06:48:34;;;;;;;3.30;2.40;;;5.10;99.90;;;;;;5000686;28;20430;-78
2023/12/05 06:50:59;;;;;;;5.43;3.25;;;5.20;99.90;;;;;;4983440;28;20042;-78
2023/12/05 06:53:25;;;;;;;4.40;3.28;;;5.20;99.90;;;;;;4974629;28;20030;-78
2023/12/05 06:55:51;;;;;;;4.18;3.13;;;5.20;99.90;;;;;;4997572;28;20030;-77
2023/12/05 06:58:16;;;;;;;2.80;2.30;;;5.20;99.90;;;;;;4984426;28;20062;-78
2023/12/05 07:00:42;;;;;;;4.63;2.70;;;5.20;99.90;;;;;;4962473;28;20030;-75
2023/12/05 07:03:07;;;;;;;4.28;3.03;;;5.20;99.90;;;;;;4965280;28;20030;-78
2023/12/05 07:05:33;;;;;;;4.82;3.95;;;5.20;99.90;;;;;;4979990;28;20050;-76
2023/12/05 07:08:00;;;;;;;4.80;3.50;;;5.20;99.90;;;;;;4971593;28;20049;-77
2023/12/05 07:10:26;;;;;;;5.43;3.60;;;5.20;99.90;;;;;;4968991;28;20031;-76
2023/12/05 07:12:52;;;;;;;4.82;3.42;;;5.20;99.90;;;;;;4970718;28;20039;-78
2023/12/05 07:15:21;;;;;;;7.13;4.63;;;5.20;99.90;;;;;;4978814;28;20083;-78
2023/12/05 07:17:47;;;;;;;6.00;3.92;;;5.30;99.90;;;;;;4985757;28;20122;-78
2023/12/05 07:20:13;;;;;;;4.25;2.50;;;5.30;99.90;;;;;;4998161;28;20117;-77
2023/12/05 07:22:38;;;;;;;5.60;4.07;;;5.30;99.90;;;;;;4959415;28;20489;-76
2023/12/05 07:25:04;;;;;;;4.30;3.63;;;5.30;99.90;;;;;;4987094;28;20041;-77
2023/12/05 07:27:30;;;;;;;4.80;3.78;;;5.30;99.90;;;;;;4988646;28;20031;-77
2023/12/05 07:29:55;;;;;;;5.72;4.22;;;5.30;99.90;;;;;;4972423;28;20042;-77
2023/12/05 07:32:21;;;;;;;5.40;3.55;;;5.30;99.90;;;;;;4990302;28;20042;-77
2023/12/05 07:34:49;;;;;;;5.65;3.65;;;5.30;99.90;;;;;;4975761;28;20038;-77
2023/12/05 07:37:15;;;;;;;5.10;3.75;;;5.40;99.90;;;;;;4981358;28;20053;-76
2023/12/05 07:39:40;;;;;;;6.50;3.47;;;5.40;99.90;;;;;;4993983;28;20029;-78
2023/12/05 07:42:06;;;;;;;4.72;3.13;;;5.40;99.90;;;;;;4959877;28;20027;-78
2023/12/05 07:44:31;;;;;;;5.35;3.45;;;5.40;99.90;;;;;;4980023;28;20027;-78
2023/12/05 07:46:57;;;;;;;5.13;2.72;;;5.40;99.90;;;;;;4962668;28;20018;-77
2023/12/05 07:49:22;;;;;;;4.95;3.45;;;5.40;99.90;;;;;;4984686;28;20432;-78
2023/12/05 07:51:48;;;;;;;5.28;3.67;;;5.40;99.90;;;;;;4981176;28;20041;-78
2023/12/05 07:54:14;;;;;;;3.83;2.95;;;5.40;99.90;;;;;;5007623;28;20035;-78
2023/12/05 07:56:39;;;;;;;6.05;4.00;;;5.50;99.90;;;;;;4993289;28;20145;-78
2023/12/05 07:59:05;;;;;;;6.28;3.80;;;5.50;99.90;;;;;;4971571;28;20027;-78
2023/12/05 08:01:31;;;;;;;4.10;2.67;;;5.50;99.90;;;;;;4994671;28;20064;-78
2023/12/05 08:03:57;;;;;;;5.00;3.63;;;5.50;99.90;;;;;;4997477;28;20042;-78
2023/12/05 08:06:23;;;;;;;3.60;2.92;;;5.50;99.90;;;;;;5003657;28;20088;-78
2023/12/05 08:08:49;;;;;;;7.07;3.50;;;5.60;99.90;;;;;;4986124;28;20029;-78
2023/12/05 08:11:15;;;;;;;5.05;3.60;;;5.60;99.90;;;;;;4985463;28;20034;-78
2023/12/05 08:13:40;;;;;;;6.72;3.85;;;5.60;99.90;;;;;;4980440;28;20042;-77
2023/12/05 08:16:07;;;;;;;7.57;3.08;;;5.60;99.90;;;;;;5000336;28;20034;-77
2023/12/05 08:18:32;;;;;;;5.13;3.88;;;5.60;99.90;;;;;;4966467;28;20030;-77
2023/12/05 08:20:58;;;;;;;4.82;2.20;;;5.60;99.90;;;;;;4985849;28;20031;-78
2023/12/05 08:23:23;;;;;;;4.20;2.90;;;5.60;99.90;;;;;;4981665;28;20113;-78
2023/12/05 08:25:49;;;;;;;4.53;3.38;;;5.70;99.90;;;;;;4985548;28;20031;-78
2023/12/05 08:28:15;;;;;;;4.07;3.10;;;5.70;99.90;;;;;;4986189;28;20041;-78
2023/12/05 08:30:41;;;;;;;4.25;2.63;;;5.70;99.90;;;;;;4982880;28;20050;-78
2023/12/05 08:33:07;;;;;;;3.78;2.90;;;5.70;99.90;;;;;;4978990;28;20116;-78
2023/12/05 08:35:32;;;;;;;5.32;3.50;;;5.70;99.90;;;;;;4986713;28;20345;-78
2023/12/05 08:37:59;;;;;;;5.95;2.25;;;5.80;99.90;;;;;;4987550;28;20042;-79
2023/12/05 08:40:24;;;;;;;4.43;2.75;;;5.80;99.90;;;;;;4981092;28;20187;-78
2023/12/05 08:42:50;;;;;;;4.15;3.00;;;5.80;99.90;;;;;;4984859;28;20032;-78
2023/12/05 08:45:15;;;;;;;3.63;2.60;;;5.80;99.90;;;;;;4983388;28;20034;-77
2023/12/05 08:47:42;;;;;;;9.93;4.10;;;5.90;99.90;;;;;;4983533;28;20039;-78
2023/12/05 08:50:09;;;;;;;4.75;3.03;;;5.90;99.90;;;;;;4999678;28;20496;-78
2023/12/05 08:52:34;;;;;;;5.65;3.20;;;5.90;99.90;;;;;;4999797;28;20112;-78
2023/12/05 08:55:03;;;;;;;5.65;3.35;;;6.00;99.90;;;;;;4990937;28;20122;-78
2023/12/05 08:57:29;;;;;;;4.50;3.10;;;6.00;99.90;;;;;;4975212;28;20110;-77
2023/12/05 08:59:54;;;;;;;3.83;2.58;;;6.00;99.90;;;;;;4988470;28;20222;-77
2023/12/05 09:02:20;;;;;;;2.97;2.58;;;6.00;99.90;;;;;;4959043;28;20085;-77
2023/12/05 09:04:45;;;;;;;3.10;1.55;;;6.10;99.90;;;;;;4984754;28;20498;-77
2023/12/05 09:07:11;;;;;;;4.22;2.72;;;6.10;99.90;;;;;;4984385;28;20053;-78
2023/12/05 09:09:41;;;;;;;7.80;2.47;;;6.10;99.90;;;;;;5001382;28;20037;-78
2023/12/05 09:12:07;;;;;;;7.57;2.45;;;6.20;99.90;;;;;;4984007;28;20050;-78
2023/12/05 09:14:32;;;;;;;6.40;2.35;;;6.20;99.90;;;;;;5001637;28;20503;-78
2023/12/05 09:16:59;;;;;;;3.67;2.15;;;6.20;99.90;;;;;;4972334;28;20037;-79
2023/12/05 09:19:25;;;;;;;9.23;3.30;;;6.20;99.90;;;;;;4975209;28;20038;-78
2023/12/05 09:21:52;;;;;;;11.85;2.88;;;6.30;99.90;;;;;;4989059;28;20410;-78
2023/12/05 09:24:18;;;;;;;7.18;2.67;;;6.30;99.90;;;;;;4989322;28;20608;-78
2023/12/05 09:26:43;;;;;;;10.95;3.78;;;6.30;99.90;;;;;;4987833;28;20027;-78
2023/12/05 09:29:09;;;;;;;5.38;2.53;;;6.40;99.90;;;;;;4968791;28;20461;-78
2023/12/05 09:31:35;;;;;;;3.33;2.35;;;6.40;99.90;;;;;;4975099;28;20034;-78
2023/12/05 09:34:01;;;;;;;8.80;3.30;;;6.40;99.90;;;;;;5003358;28;20042;-78
2023/12/05 09:36:26;;;;;;;7.03;2.55;;;6.40;99.90;;;;;;5004923;28;20092;-78
2023/12/05 09:38:52;;;;;;;3.50;1.90;;;6.50;99.90;;;;;;4999430;28;20461;-78
2023/12/05 09:41:17;;;;;;;8.05;2.95;;;6.50;99.90;;;;;;5001852;28;20090;-78
2023/12/05 09:43:44;;;;;;;5.82;2.13;;;6.50;99.90;;;;;;4986064;28;20030;-77
2023/12/05 09:46:09;;;;;;;3.65;1.88;;;6.50;99.90;;;;;;5001506;28;20378;-76
2023/12/05 09:48:43;;;;;;;4.70;1.88;;;6.60;99.90;;;;;;4994428;28;20030;-76
2023/12/05 09:51:08;;;;;;;4.85;2.08;;;6.60;99.90;;;;;;5003853;28;20125;-77
2023/12/05 09:53:34;;;;;;;3.80;2.75;;;6.60;99.90;;;;;;4985836;28;20036;-76
2023/12/05 09:55:59;;;;;;;4.35;1.73;;;6.70;99.90;;;;;;4999475;28;20134;-77
2023/12/05 09:58:25;;;;;;;6.10;1.70;;;6.70;99.90;;;;;;5001187;28;20105;-77
2023/12/05 10:00:52;;;;;;;9.18;2.20;;;6.70;99.90;;;;;;4998308;28;20133;-76
2023/12/05 10:03:18;;;;;;;1.95;1.13;;;6.80;99.90;;;;;;4987284;28;20480;-77
2023/12/05 10:05:43;;;;;;;3.55;1.33;;;6.80;99.90;;;;;;4986338;28;20054;-77
2023/12/05 10:08:10;;;;;;;6.53;1.30;;;6.80;99.90;;;;;;4997490;28;20473;-76
2023/12/05 10:10:37;;;;;;;2.17;1.65;;;6.90;99.90;;;;;;4983295;28;20038;-75
2023/12/05 10:13:03;;;;;;;1.52;1.13;;;7.00;99.90;;;;;;4985274;28;20068;-75
2023/12/05 10:15:30;;;;;;;2.97;1.50;;;7.00;99.90;;;;;;4986935;28;20146;-76
2023/12/05 10:17:58;;;;;;;2.55;1.55;;;7.00;99.90;;;;;;4993741;28;20054;-76
2023/12/05 10:20:24;;;;;;;4.15;1.15;;;7.00;99.90;;;;;;4977595;28;20344;-76
2023/12/05 10:22:51;;;;;;;3.17;1.15;;;7.00;99.90;;;;;;4963773;28;20771;-77
2023/12/05 10:25:17;;;;;;;4.43;1.52;;;7.10;99.90;;;;;;5002217;28;20100;-77
2023/12/05 10:27:43;;;;;;;3.25;1.30;;;7.10;99.90;;;;;;4982961;28;20034;-77
2023/12/05 10:30:09;;;;;;;8.95;1.63;;;7.20;99.90;;;;;;4985088;28;20034;-77
2023/12/05 10:32:36;;;;;;;1.40;0.93;;;7.20;99.90;;;;;;5000474;28;20076;-77
2023/12/05 10:35:03;;;;;;;4.45;1.52;;;7.20;99.90;;;;;;4971194;28;20037;-77
2023/12/05 10:37:29;;;;;;;2.92;1.30;;;7.20;99.90;;;;;;4981642;28;20041;-77
2023/12/05 10:39:55;;;;;;;2.42;0.82;;;7.20;99.90;;;;;;4987915;28;20483;-76
2023/12/05 10:42:25;;;;;;;5.93;1.63;;;7.30;99.90;;;;;;5009157;28;20043;-76
2023/12/05 10:44:51;;;;;;;11.05;1.95;;;7.20;99.90;;;;;;5013883;28;20108;-76
2023/12/05 10:47:16;;;;;;;3.85;1.20;;;7.20;99.90;;;;;;4983529;28;20125;-77
2023/12/05 10:49:42;;;;;;;1.30;0.80;;;7.20;99.90;;;;;;4986530;28;20030;-77
2023/12/05 10:52:08;;;;;;;3.80;1.10;;;7.20;99.90;;;;;;5002775;28;20194;-76
2023/12/05 10:54:34;;;;;;;1.60;1.20;;;7.20;99.90;;;;;;4964779;28;20041;-78
2023/12/05 10:56:59;;;;;;;1.80;0.82;;;7.30;99.90;;;;;;4995922;28;20037;-78
2023/12/05 10:59:28;;;;;;;1.83;0.88;;;7.20;99.90;;;;;;4974440;28;20031;-78
2023/12/05 11:01:57;;;;;;;1.30;1.00;;;7.20;99.90;;;;;;5004653;28;20225;-79
2023/12/05 11:04:26;;;;;;;1.67;0.98;;;7.20;99.90;;;;;;5013250;28;20049;-79
2023/12/05 11:06:55;;;;;;;2.35;0.88;;;7.30;99.90;;;;;;5015526;28;20029;-78
2023/12/05 11:09:22;;;;;;;2.95;0.80;;;7.20;99.90;;;;;;4979347;28;20569;-79
2023/12/05 11:11:51;;;;;;;1.83;1.02;;;7.30;99.90;;;;;;4986121;28;22344;-79
2023/12/05 11:14:17;;;;;;;1.13;0.90;;;7.30;99.90;;;;;;4981659;28;20176;-78
2023/12/05 11:16:51;;;;;;;1.63;0.75;;;7.30;99.90;;;;;;5002898;28;20105;-78
2023/12/05 11:19:34;;;;;;;1.92;0.70;;;7.30;99.90;;;;;;4984739;28;20026;-79
2023/12/05 11:22:18;;;;;;;1.33;0.88;;;7.20;99.90;;;;;;4970574;28;20484;-78
2023/12/05 11:25:02;;;;;;;3.95;0.82;;;7.20;99.90;;;;;;4998449;28;20556;-79
2023/12/05 11:27:54;;;;;;;1.20;0.65;;;7.20;99.90;;;;;;5008137;28;20046;-79
2023/12/05 11:30:49;;;;;;;0.70;0.70;;;7.20;99.90;;;;;;4980974;28;20079;-79
2023/12/05 11:33:33;;;;;;;0.60;0.50;;;7.20;99.90;;;;;;4980963;28;20045;-79
2023/12/05 11:36:13;;;;;;;0.57;0.52;;;7.20;99.90;;;;;;5002218;28;20556;-79
2023/12/05 11:38:39;;;;;;;3.30;0.88;;;7.20;99.90;;;;;;4976078;28;20931;-80
2023/12/05 11:41:12;;;;;;;4.35;0.80;;;7.20;99.90;;;;;;4983821;28;20045;-80
2023/12/05 11:43:39;;;;;;;2.70;0.95;;;7.20;99.90;;;;;;4978205;28;20482;-80
2023/12/05 11:46:04;;;;;;;1.15;0.70;;;7.20;99.90;;;;;;4982061;28;20477;-79
2023/12/05 11:48:33;;;;;;;0.47;0.32;;;7.20;99.90;;;;;;4985328;28;20043;-79
2023/12/05 11:50:59;;;;;;;0.90;0.60;;;7.20;99.90;;;;;;4985315;28;20094;-79
2023/12/05 11:53:24;;;;;;;0.93;0.70;;;7.20;99.90;;;;;;4959584;28;20156;-79
2023/12/05 11:55:50;;;;;;;0.73;0.55;;;7.20;99.90;;;;;;4985193;28;20133;-79
2023/12/05 11:58:34;;;;;;;0.60;0.50;;;7.20;99.90;;;;;;4999513;28;20133;-78
2023/12/05 12:01:10;;;;;;;1.10;0.57;;;7.20;99.90;;;;;;4989460;28;20583;-79
2023/12/05 12:03:45;;;;;;;1.25;0.68;;;7.20;99.90;;;;;;4996848;28;20523;-79
2023/12/05 12:06:11;;;;;;;1.05;0.95;;;7.20;99.90;;;;;;5001641;28;20037;-80
2023/12/05 12:08:36;;;;;;;1.40;0.88;;;7.20;99.90;;;;;;4981160;28;20148;-80
2023/12/05 12:11:04;;;;;;;1.38;0.55;;;7.30;99.90;;;;;;4980944;28;20751;-80
2023/12/05 12:13:29;;;;;;;1.75;0.70;;;7.30;99.90;;;;;;4974687;28;20058;-80
2023/12/05 12:15:57;;;;;;;2.67;0.80;;;7.30;99.90;;;;;;4983004;28;20073;-79
2023/12/05 12:18:25;;;;;;;3.63;0.70;;;7.30;99.90;;;;;;4999794;28;20037;-79
2023/12/05 12:20:51;;;;;;;0.70;0.50;;;7.30;99.90;;;;;;4987419;28;20034;-81
2023/12/05 12:23:16;;;;;;;1.05;0.47;;;7.20;99.90;;;;;;5004736;28;20401;-80
2023/12/05 12:25:53;;;;;;;1.80;0.65;;;7.20;99.90;;;;;;5005798;28;20556;-80
2023/12/05 12:28:26;;;;;;;0.52;0.22;;;7.20;99.90;;;;;;5005727;28;20036;-80
2023/12/05 12:30:53;;;;;;;1.90;0.65;;;7.20;99.90;;;;;;5006799;28;20038;-80
2023/12/05 12:33:19;;;;;;;0.57;0.45;;;7.20;99.90;;;;;;5004838;28;20386;-79
2023/12/05 12:35:46;;;;;;;1.58;0.70;;;7.20;99.90;;;;;;5002279;28;20161;-80
2023/12/05 12:38:12;;;;;;;0.82;0.65;;;7.20;99.90;;;;;;4984925;28;20040;-80
2023/12/05 12:40:39;;;;;;;1.58;0.80;;;7.20;99.90;;;;;;4979656;28;20035;-80
2023/12/05 12:43:05;;;;;;;0.90;0.80;;;7.20;99.90;;;;;;4993143;28;20103;-80
2023/12/05 12:45:30;;;;;;;1.73;0.60;;;7.20;99.90;;;;;;4990790;28;20359;-80
2023/12/05 12:47:57;;;;;;;0.75;0.73;;;7.20;99.90;;;;;;4981312;28;20031;-81
2023/12/05 12:50:22;;;;;;;1.70;0.80;;;7.20;99.90;;;;;;5006085;28;20026;-80
2023/12/05 12:52:49;;;;;;;1.25;0.80;;;7.20;99.90;;;;;;5006420;28;20092;-80
2023/12/05 12:55:16;;;;;;;1.52;1.08;;;7.20;99.90;;;;;;5009919;28;20045;-80